Time;durP1;ratioP1;P1;durP2;ratioP2;P2;SDS_P1;SDS_P2;PMS_P1;PMS_P2;Temp;Humidity;BMP_temperature;BMP_pressure;BME280_temperature;BME280_humidity;BME280_pressure;Samples;Min_cycle;Max_cycle;Signal;HPM_P1;HPM_P2
2023/06/21 00:00:57;;;;;;;31.50;28.25;;;;;;;26.94;66.49;100716.66;5006878;27;99554;-68
2023/06/21 00:03:25;;;;;;;38.83;32.08;;;;;;;26.98;66.65;100715.31;5004480;28;98792;-67
2023/06/21 00:05:51;;;;;;;40.03;31.77;;;;;;;26.71;67.06;100723.59;5002920;28;96965;-66
2023/06/21 00:08:17;;;;;;;37.67;32.45;;;;;;;26.89;66.85;100720.88;5006768;28;98134;-67
2023/06/21 00:10:45;;;;;;;40.30;33.20;;;;;;;26.67;67.71;100733.03;5015091;28;99328;-68
2023/06/21 00:13:11;;;;;;;36.38;32.47;;;;;;;26.57;68.36;100738.56;5004641;28;98578;-67
2023/06/21 00:15:38;;;;;;;37.50;31.63;;;;;;;26.49;68.95;100734.94;5006577;28;96848;-66
2023/06/21 00:18:04;;;;;;;33.58;30.08;;;;;;;26.47;68.96;100736.94;5010674;28;98261;-67
2023/06/21 00:20:30;;;;;;;37.83;33.72;;;;;;;26.44;68.83;100735.44;5010240;28;101388;-67
2023/06/21 00:22:57;;;;;;;37.75;33.08;;;;;;;26.25;69.74;100743.72;5011850;28;98743;-67
2023/06/21 00:25:24;;;;;;;38.47;31.60;;;;;;;26.23;69.49;100742.97;5004002;28;98831;-66
2023/06/21 00:27:52;;;;;;;36.35;31.10;;;;;;;26.42;69.17;100744.72;5013541;28;97826;-67
2023/06/21 00:30:18;;;;;;;34.95;31.20;;;;;;;26.50;68.64;100748.34;5003182;28;99103;-67
2023/06/21 00:32:44;;;;;;;35.95;30.77;;;;;;;26.20;69.84;100762.25;5001733;28;98797;-67
2023/06/21 00:35:11;;;;;;;34.63;30.77;;;;;;;26.41;69.10;100759.25;5002674;28;96810;-69
2023/06/21 00:37:38;;;;;;;31.83;27.50;;;;;;;26.59;68.10;100757.38;5008754;28;97769;-67
2023/06/21 00:40:10;;;;;;;36.10;32.15;;;;;;;26.67;67.76;100757.44;5013002;28;99112;-67
2023/06/21 00:42:36;;;;;;;33.55;29.90;;;;;;;26.50;67.66;100755.63;5004916;28;99015;-67
2023/06/21 00:45:05;;;;;;;34.67;29.92;;;;;;;26.27;68.92;100757.94;5012681;28;97771;-67
2023/06/21 00:47:32;;;;;;;33.80;28.75;;;;;;;26.30;69.21;100754.94;5006129;28;97444;-67
2023/06/21 00:49:58;;;;;;;32.47;28.98;;;;;;;26.29;69.13;100760.50;5011079;28;99353;-67
2023/06/21 00:52:25;;;;;;;34.75;30.02;;;;;;;26.27;69.36;100749.81;5011435;28;98755;-68
2023/06/21 00:54:52;;;;;;;29.60;26.50;;;;;;;26.49;68.57;100735.78;5012683;28;96812;-67
2023/06/21 00:57:19;;;;;;;30.23;27.10;;;;;;;26.59;67.78;100730.28;5009299;28;97064;-68
2023/06/21 00:59:45;;;;;;;33.90;27.85;;;;;;;26.52;67.77;100716.50;5000419;28;99037;-68
2023/06/21 01:02:13;;;;;;;30.88;27.73;;;;;;;26.64;66.73;100706.28;5006539;28;99229;-67
2023/06/21 01:04:41;;;;;;;31.75;28.48;;;;;;;26.53;67.54;100704.66;5002625;28;96783;-67
2023/06/21 01:07:22;;;;;;;31.23;27.05;;;;;;;26.46;67.29;100709.00;5006553;28;96820;-68
2023/06/21 01:10:02;;;;;;;33.25;27.83;;;;;;;26.21;68.88;100720.63;5010448;28;99135;-69
2023/06/21 01:12:42;;;;;;;34.05;28.80;;;;;;;26.03;69.84;100717.91;5012090;28;100759;-68
2023/06/21 01:15:14;;;;;;;31.02;27.73;;;;;;;25.89;70.51;100723.00;5014087;28;97004;-68
2023/06/21 01:17:46;;;;;;;31.98;28.52;;;;;;;25.96;70.64;100721.38;5012479;28;96829;-69
2023/06/21 01:20:18;;;;;;;31.17;27.88;;;;;;;26.08;70.01;100718.28;5007312;28;102880;-69
2023/06/21 01:22:55;;;;;;;30.85;26.30;;;;;;;26.44;68.50;100721.88;4996805;28;97698;-68
2023/06/21 01:25:29;;;;;;;30.02;26.55;;;;;;;26.71;67.33;100710.06;5015418;28;96749;-68
2023/06/21 01:28:11;;;;;;;32.80;27.73;;;;;;;26.49;67.70;100714.13;5009323;28;98762;-67
2023/06/21 01:30:42;;;;;;;29.85;26.42;;;;;;;26.72;66.65;100705.44;5018694;27;98837;-68
2023/06/21 01:33:09;;;;;;;30.58;27.35;;;;;;;26.63;67.00;100703.72;5005092;28;99464;-68
2023/06/21 01:35:36;;;;;;;29.75;26.75;;;;;;;26.53;67.59;100710.06;5003764;28;98916;-68
2023/06/21 01:38:02;;;;;;;29.35;25.35;;;;;;;26.47;67.32;100715.28;5002661;28;97081;-67
2023/06/21 01:40:29;;;;;;;28.48;25.48;;;;;;;26.40;68.18;100715.06;5002581;28;97672;-68
2023/06/21 01:42:55;;;;;;;28.52;25.08;;;;;;;26.41;68.12;100711.34;5006255;28;99115;-67
2023/06/21 01:45:23;;;;;;;31.67;24.70;;;;;;;26.43;67.93;100713.91;5007218;28;96821;-67
2023/06/21 01:47:51;;;;;;;25.05;22.17;;;;;;;26.55;67.33;100713.50;5004538;28;97208;-67
2023/06/21 01:50:20;;;;;;;26.83;24.02;;;;;;;26.61;67.28;100711.16;4999096;28;98625;-67
2023/06/21 01:52:47;;;;;;;25.65;23.00;;;;;;;26.73;66.28;100709.88;5000827;28;99181;-66
2023/06/21 01:55:13;;;;;;;25.98;23.30;;;;;;;26.97;65.09;100715.50;5000027;28;96804;-67
2023/06/21 01:57:40;;;;;;;29.05;24.88;;;;;;;26.89;65.59;100720.88;5000225;28;98604;-68
2023/06/21 02:00:16;;;;;;;26.73;23.65;;;;;;;26.86;65.24;100726.56;5000070;28;98681;-68
2023/06/21 02:02:43;;;;;;;;;;;;;;;26.73;65.55;100723.41;5000447;28;98478;-67
2023/06/21 02:05:11;;;;;;;;;;;;;;;26.94;64.79;100722.09;5006977;28;98925;-69
2023/06/21 02:07:39;;;;;;;24.30;21.73;;;;;;;27.10;64.05;100728.63;5017436;28;97439;-66
2023/06/21 02:10:07;;;;;;;25.83;23.13;;;;;;;27.11;63.59;100731.16;5008700;27;98805;-67
2023/06/21 02:12:34;;;;;;;27.83;24.45;;;;;;;26.84;65.02;100734.03;5007271;28;100928;-66
2023/06/21 02:15:00;;;;;;;24.83;22.25;;;;;;;26.92;64.50;100736.81;5001750;28;97065;-67
2023/06/21 02:17:28;;;;;;;24.30;21.77;;;;;;;26.86;64.75;100742.81;5000995;28;96940;-66
2023/06/21 02:19:55;;;;;;;26.48;23.58;;;;;;;26.72;65.71;100744.25;5006003;28;98989;-66
2023/06/21 02:22:22;;;;;;;26.25;22.75;;;;;;;26.67;65.98;100756.59;4999845;28;98852;-66
2023/06/21 02:24:49;;;;;;;27.27;23.70;;;;;;;26.50;67.24;100786.28;5001250;28;98652;-66
2023/06/21 02:27:16;;;;;;;28.40;21.73;;;;;;;26.52;67.29;100822.19;5001946;28;96968;-66
2023/06/21 02:29:42;;;;;;;26.85;23.88;;;;;;;26.27;67.86;100822.09;5001882;28;99169;-67
2023/06/21 02:32:09;;;;;;;28.83;23.77;;;;;;;26.34;68.24;100815.91;5002116;28;99350;-67
2023/06/21 02:34:35;;;;;;;28.08;24.27;;;;;;;26.49;67.01;100825.22;5005568;28;98626;-68
2023/06/21 02:37:02;;;;;;;30.83;25.27;;;;;;;26.49;67.56;100841.47;5005098;28;96993;-67
2023/06/21 02:39:30;;;;;;;28.63;24.52;;;;;;;26.64;67.52;100830.09;5003559;28;99149;-66
2023/06/21 02:41:56;;;;;;;28.85;25.70;;;;;;;26.44;67.83;100841.09;5002467;28;99261;-67
2023/06/21 02:44:22;;;;;;;29.75;25.38;;;;;;;26.55;68.44;100842.69;5004843;28;98794;-67
2023/06/21 02:46:49;;;;;;;30.40;25.98;;;;;;;26.58;68.29;100840.53;5004446;28;97704;-66
2023/06/21 02:49:15;;;;;;;31.80;26.95;;;;;;;26.41;69.52;100841.38;5007322;28;99157;-66
2023/06/21 02:51:42;;;;;;;33.92;30.08;;;;;;;26.37;69.90;100822.88;5003740;28;99127;-67
2023/06/21 02:54:08;;;;;;;31.02;27.65;;;;;;;26.49;68.42;100817.09;5004968;28;96855;-67
2023/06/21 02:56:36;;;;;;;31.35;26.77;;;;;;;26.41;68.67;100802.59;5005001;28;97301;-66
2023/06/21 02:59:05;;;;;;;31.05;25.95;;;;;;;26.59;68.19;100796.16;5003733;28;100932;-67
2023/06/21 03:01:31;;;;;;;31.45;28.00;;;;;;;26.78;67.92;100792.41;5004255;28;98851;-67
2023/06/21 03:03:57;;;;;;;35.03;28.48;;;;;;;26.68;68.96;100777.25;5002852;28;96928;-66
2023/06/21 03:06:24;;;;;;;31.85;28.40;;;;;;;26.87;68.47;100764.38;5004185;28;98015;-68
2023/06/21 03:08:51;;;;;;;33.70;28.38;;;;;;;26.94;68.12;100768.19;5002641;28;99524;-67
2023/06/21 03:11:17;;;;;;;33.08;29.23;;;;;;;26.67;69.85;100776.41;5002955;28;99167;-67
2023/06/21 03:13:45;;;;;;;30.88;26.83;;;;;;;26.69;69.86;100768.13;5004111;28;98286;-67
2023/06/21 03:16:11;;;;;;;33.45;28.85;;;;;;;26.88;69.22;100755.22;5001144;28;96949;-67
2023/06/21 03:18:38;;;;;;;35.22;29.77;;;;;;;26.94;69.25;100751.06;5002745;28;99000;-68
2023/06/21 03:21:04;;;;;;;39.88;30.80;;;;;;;27.00;69.09;100742.28;5002240;28;99091;-67
2023/06/21 03:23:31;;;;;;;34.80;30.42;;;;;;;26.94;69.45;100734.78;5004278;28;98928;-67
2023/06/21 03:25:57;;;;;;;32.13;28.05;;;;;;;26.94;69.30;100726.66;5000987;28;97364;-67
2023/06/21 03:28:23;;;;;;;33.65;30.00;;;;;;;26.88;69.53;100724.56;5003345;28;99009;-66
2023/06/21 03:30:51;;;;;;;35.80;29.50;;;;;;;26.78;70.10;100745.50;5003004;28;98887;-67
2023/06/21 03:33:18;;;;;;;33.17;29.63;;;;;;;26.54;71.66;100754.28;5002879;28;96801;-66
2023/06/21 03:35:44;;;;;;;38.50;30.50;;;;;;;26.42;73.21;100764.53;5002015;28;96919;-66
2023/06/21 03:38:11;;;;;;;36.85;30.60;;;;;;;26.31;73.60;100774.75;5004141;27;99409;-67
2023/06/21 03:40:37;;;;;;;36.97;30.25;;;;;;;26.31;73.30;100770.19;5002436;28;98741;-67
2023/06/21 03:43:03;;;;;;;32.13;28.63;;;;;;;26.49;72.37;100792.69;5000582;28;96844;-67
2023/06/21 03:45:30;;;;;;;34.63;29.83;;;;;;;26.42;73.13;100802.44;5001687;28;96905;-67
2023/06/21 03:47:59;;;;;;;34.38;30.73;;;;;;;26.33;73.68;100797.94;5008349;28;99901;-66
2023/06/21 03:50:25;;;;;;;37.42;30.70;;;;;;;26.37;73.08;100796.66;5001070;28;99173;-65
2023/06/21 03:52:51;;;;;;;37.55;31.98;;;;;;;26.50;72.33;100807.94;5001092;28;97714;-66
2023/06/21 03:55:18;;;;;;;34.45;30.38;;;;;;;26.69;71.05;100814.22;5000284;28;98801;-68
2023/06/21 03:57:44;;;;;;;33.40;29.80;;;;;;;26.72;71.22;100808.44;5001264;28;98019;-67
2023/06/21 04:00:12;;;;;;;36.78;32.15;;;;;;;26.85;70.46;100803.47;5001295;28;97913;-67
2023/06/21 04:02:38;;;;;;;33.25;29.45;;;;;;;26.82;70.41;100801.09;5005520;28;96783;-67
2023/06/21 04:05:09;;;;;;;35.67;31.08;;;;;;;27.00;70.13;100801.94;5000694;28;97274;-66
2023/06/21 04:07:36;;;;;;;39.70;33.15;;;;;;;26.98;70.35;100809.38;5003202;28;99837;-67
2023/06/21 04:10:02;;;;;;;38.08;33.70;;;;;;;27.00;70.31;100815.50;5002029;28;99147;-66
2023/06/21 04:12:30;;;;;;;40.20;32.05;;;;;;;26.89;70.61;100815.75;5004569;28;98670;-67
2023/06/21 04:14:57;;;;;;;36.60;31.85;;;;;;;27.18;69.44;100794.59;5004911;28;97135;-67
2023/06/21 04:17:23;;;;;;;36.08;32.17;;;;;;;27.07;69.96;100797.56;5003374;28;99105;-67
2023/06/21 04:19:50;;;;;;;39.28;35.03;;;;;;;27.19;69.67;100804.44;5004554;28;98798;-67
2023/06/21 04:22:17;;;;;;;45.15;37.25;;;;;;;27.16;69.98;100815.63;4999783;28;96909;-67
2023/06/21 04:24:44;;;;;;;33.88;30.17;;;;;;;27.20;70.12;100813.44;5001317;28;98396;-67
2023/06/21 04:27:12;;;;;;;37.83;33.22;;;;;;;26.70;72.33;100845.72;5002583;27;99100;-67
2023/06/21 04:29:40;;;;;;;38.90;33.50;;;;;;;26.58;73.77;100854.06;4999714;28;98783;-67
2023/06/21 04:32:07;;;;;;;39.65;33.22;;;;;;;26.69;73.27;100865.69;5002346;28;96925;-65
2023/06/21 04:34:34;;;;;;;39.67;32.25;;;;;;;26.68;72.76;100888.38;5002296;28;96927;-68
2023/06/21 04:37:05;;;;;;;35.75;31.88;;;;;;;26.73;72.71;100896.91;5000036;28;98573;-67
2023/06/21 04:39:33;;;;;;;36.40;31.52;;;;;;;26.82;72.03;100899.53;5000408;28;99492;-67
2023/06/21 04:42:00;;;;;;;36.47;32.33;;;;;;;26.98;71.69;100907.00;5002976;28;98359;-67
2023/06/21 04:44:27;;;;;;;36.60;32.63;;;;;;;27.28;70.89;100906.56;4999956;28;97183;-67
2023/06/21 04:46:54;;;;;;;43.15;35.10;;;;;;;27.20;70.63;100919.22;5002536;28;99058;-67
2023/06/21 04:49:20;;;;;;;45.35;34.88;;;;;;;27.19;70.01;100923.78;5001035;28;98882;-67
2023/06/21 04:51:47;;;;;;;38.78;34.47;;;;;;;27.17;70.42;100925.81;4999450;28;96829;-67
2023/06/21 04:54:13;;;;;;;39.53;35.17;;;;;;;27.29;70.43;100930.00;5000744;28;96927;-67
2023/06/21 04:56:41;;;;;;;43.13;36.00;;;;;;;27.16;70.68;100917.84;4999731;28;99003;-67
2023/06/21 04:59:08;;;;;;;34.28;30.33;;;;;;;27.61;68.95;100923.13;5001830;28;98847;-67
2023/06/21 05:01:35;;;;;;;42.65;34.58;;;;;;;27.47;69.45;100931.81;4999726;28;98974;-67
2023/06/21 05:04:17;;;;;;;45.38;33.83;;;;;;;27.59;68.85;100916.97;4999221;28;97123;-67
2023/06/21 05:06:44;;;;;;;41.90;35.75;;;;;;;27.37;68.44;100911.03;5000988;28;99757;-62
2023/06/21 05:09:10;;;;;;;46.10;37.63;;;;;;;27.53;67.93;100917.63;4999686;28;99066;-62
2023/06/21 05:11:52;;;;;;;51.90;33.38;;;;;;;27.68;67.77;100913.31;5000605;28;97149;-62
2023/06/21 05:14:19;;;;;;;39.88;35.58;;;;;;;27.35;69.34;100918.50;4999072;28;96957;-62
2023/06/21 05:16:46;;;;;;;43.20;36.38;;;;;;;27.37;68.93;100915.63;5001910;28;98082;-62
2023/06/21 05:19:12;;;;;;;64.72;53.20;;;;;;;27.41;69.17;100914.28;5000740;28;99062;-61
2023/06/21 05:21:39;;;;;;;57.92;36.17;;;;;;;27.32;69.48;100916.09;4996873;28;98963;-62
2023/06/21 05:24:05;;;;;;;40.67;34.92;;;;;;;27.25;69.73;100927.72;5002032;28;97654;-62
2023/06/21 05:26:32;;;;;;;39.72;35.42;;;;;;;27.42;69.28;100921.44;5002416;28;98778;-62
2023/06/21 05:28:58;;;;;;;37.25;33.25;;;;;;;27.21;68.92;100921.78;4998274;28;98260;-62
2023/06/21 05:31:28;;;;;;;38.22;33.67;;;;;;;27.26;69.01;100922.16;5002109;28;100998;-63
2023/06/21 05:33:55;;;;;;;38.00;33.10;;;;;;;27.18;68.98;100919.38;5010079;28;97007;-63
2023/06/21 05:36:22;;;;;;;36.47;32.55;;;;;;;27.48;67.49;100923.50;5013617;28;99550;-63
2023/06/21 05:38:48;;;;;;;43.00;34.17;;;;;;;27.47;68.08;100937.22;5010701;28;98925;-63
2023/06/21 05:41:14;;;;;;;38.88;32.65;;;;;;;27.54;67.06;100939.19;5003296;28;98067;-62
2023/06/21 05:43:41;;;;;;;37.38;31.63;;;;;;;27.62;66.84;100949.25;5001362;28;99243;-62
2023/06/21 05:46:07;;;;;;;35.58;31.77;;;;;;;27.63;67.24;100954.53;5002270;28;102164;-62
2023/06/21 05:48:35;;;;;;;35.42;31.60;;;;;;;27.74;66.10;100961.53;4999633;28;101962;-62
2023/06/21 05:51:01;;;;;;;33.72;30.17;;;;;;;27.54;67.10;100960.03;4999703;28;96900;-62
2023/06/21 05:53:28;;;;;;;37.50;30.27;;;;;;;27.81;67.00;100950.91;4997580;28;97119;-61
2023/06/21 05:55:56;;;;;;;34.60;30.80;;;;;;;28.14;65.39;100953.66;4997782;28;98972;-61
2023/06/21 05:58:22;;;;;;;33.42;29.83;;;;;;;28.03;65.04;100961.19;4997959;28;98982;-63
2023/06/21 06:00:49;;;;;;;32.83;29.38;;;;;;;28.08;65.15;100959.72;5000008;28;97315;-63
2023/06/21 06:03:16;;;;;;;29.33;26.20;;;;;;;28.06;63.95;100952.72;4999564;28;98479;-61
2023/06/21 06:05:45;;;;;;;30.55;27.15;;;;;;;28.24;63.35;100953.50;4993560;28;99186;-62
2023/06/21 06:08:11;;;;;;;31.17;26.17;;;;;;;28.30;63.39;100955.56;4996783;28;99186;-62
2023/06/21 06:10:38;;;;;;;33.00;28.15;;;;;;;28.18;63.58;100956.88;5003147;28;96867;-62
2023/06/21 06:13:04;;;;;;;32.88;28.67;;;;;;;28.39;63.27;100961.91;5002779;28;97920;-62
2023/06/21 06:15:31;;;;;;;34.05;29.33;;;;;;;28.21;63.85;100958.44;4994635;28;99022;-61
2023/06/21 06:17:57;;;;;;;33.63;30.02;;;;;;;27.96;64.51;100971.84;5001457;28;99200;-63
2023/06/21 06:20:26;;;;;;;32.45;28.90;;;;;;;28.02;64.68;100963.06;5006575;28;97456;-62
2023/06/21 06:22:53;;;;;;;34.30;30.13;;;;;;;28.20;64.18;100956.72;4999001;28;98238;-63
2023/06/21 06:25:20;;;;;;;33.33;29.40;;;;;;;28.25;62.84;100963.38;4998356;28;99759;-63
2023/06/21 06:27:46;;;;;;;34.28;28.90;;;;;;;28.67;61.71;100957.06;5010279;28;98983;-64
2023/06/21 06:30:13;;;;;;;35.58;30.42;;;;;;;28.44;63.03;100971.25;5008835;28;98140;-63
2023/06/21 06:32:39;;;;;;;31.92;28.52;;;;;;;28.55;61.96;100978.28;5000683;28;97996;-62
2023/06/21 06:35:07;;;;;;;32.40;28.95;;;;;;;28.69;61.72;100974.91;5002440;28;98438;-62
2023/06/21 06:37:33;;;;;;;34.17;27.90;;;;;;;28.69;61.52;100984.91;4999824;28;99257;-62
2023/06/21 06:40:01;;;;;;;31.75;27.63;;;;;;;28.96;60.54;100975.66;4998074;28;98128;-61
2023/06/21 06:42:27;;;;;;;30.65;26.40;;;;;;;29.17;59.62;100979.59;5000082;28;97005;-63
2023/06/21 06:44:54;;;;;;;31.17;27.95;;;;;;;29.30;59.02;100976.38;5001221;28;99066;-62
2023/06/21 06:47:20;;;;;;;30.77;27.40;;;;;;;29.31;58.74;100978.94;4999672;28;97834;-62
2023/06/21 06:49:46;;;;;;;29.38;26.25;;;;;;;29.48;58.75;100977.09;4997022;28;98179;-63
2023/06/21 06:52:13;;;;;;;31.65;26.67;;;;;;;29.84;57.21;100979.44;4997140;28;97236;-64
2023/06/21 06:54:40;;;;;;;29.90;26.70;;;;;;;30.06;55.79;100989.63;4995696;28;99011;-63
2023/06/21 06:57:07;;;;;;;29.42;26.30;;;;;;;30.30;55.85;100991.41;4995211;28;98975;-63
2023/06/21 06:59:34;;;;;;;28.75;25.65;;;;;;;30.63;54.55;100992.16;4995390;28;96959;-63
2023/06/21 07:02:00;;;;;;;30.67;26.63;;;;;;;30.68;54.20;100992.47;4994877;28;97056;-63
2023/06/21 07:04:28;;;;;;;29.85;26.67;;;;;;;30.77;54.11;100994.13;4993633;28;98887;-64
2023/06/21 07:06:57;;;;;;;34.30;29.88;;;;;;;30.25;55.72;100997.41;4995753;28;99133;-64
2023/06/21 07:09:23;;;;;;;31.77;27.52;;;;;;;29.86;56.87;100991.00;4996033;28;98720;-62
2023/06/21 07:11:49;;;;;;;29.05;26.00;;;;;;;30.28;56.34;100999.75;4996485;28;97843;-62
2023/06/21 07:14:17;;;;;;;28.33;23.23;;;;;;;29.81;55.27;100996.09;4997897;27;99883;-63
2023/06/21 07:16:44;;;;;;;25.00;22.33;;;;;;;29.93;56.01;100994.78;4998528;28;98805;-61
2023/06/21 07:19:10;;;;;;;23.27;20.77;;;;;;;29.77;55.55;100997.47;4999180;28;99086;-63
2023/06/21 07:21:39;;;;;;;24.27;21.75;;;;;;;29.66;56.65;101015.88;5000253;28;97140;-61
2023/06/21 07:24:05;;;;;;;23.65;21.08;;;;;;;29.60;57.02;101024.72;5001070;28;99270;-62
2023/06/21 07:26:33;;;;;;;28.52;20.17;;;;;;;29.55;56.74;101021.66;5004091;28;99000;-61
2023/06/21 07:28:59;;;;;;;20.90;18.70;;;;;;;29.46;56.93;101019.97;5007980;28;96906;-62
2023/06/21 07:31:27;;;;;;;19.73;17.63;;;;;;;29.65;55.55;101026.94;5018859;28;96892;-62
2023/06/21 07:33:57;;;;;;;21.38;19.13;;;;;;;30.01;55.21;101035.59;5016745;28;100470;-63
2023/06/21 07:36:24;;;;;;;18.27;16.48;;;;;;;30.05;55.45;101035.09;5008387;28;99107;-62
2023/06/21 07:38:50;;;;;;;26.63;16.83;;;;;;;30.05;54.37;101040.56;5012593;28;96785;-62
2023/06/21 07:41:17;;;;;;;18.65;16.63;;;;;;;30.36;54.64;101046.06;5010856;28;96811;-64
2023/06/21 07:43:43;;;;;;;21.80;15.90;;;;;;;30.64;53.65;101043.78;5006860;28;98966;-63
2023/06/21 07:46:09;;;;;;;18.98;15.07;;;;;;;30.69;53.07;101045.97;5008268;28;99456;-62
2023/06/21 07:48:38;;;;;;;17.55;14.60;;;;;;;30.98;52.11;101054.38;5010964;28;96846;-63
2023/06/21 07:51:04;;;;;;;18.35;14.20;;;;;;;31.00;51.39;101055.00;5014180;28;96775;-62
2023/06/21 07:53:31;;;;;;;15.55;14.05;;;;;;;31.05;51.27;101058.09;5011211;28;100735;-63
2023/06/21 07:56:00;;;;;;;20.38;13.45;;;;;;;30.70;51.41;101067.63;5014746;28;99233;-62
2023/06/21 07:58:26;;;;;;;15.25;12.95;;;;;;;30.12;53.10;101059.78;5007812;28;98084;-61
2023/06/21 08:00:52;;;;;;;14.30;12.80;;;;;;;30.10;53.81;101056.38;5003438;28;97737;-62
2023/06/21 08:03:19;;;;;;;15.32;12.98;;;;;;;30.37;53.44;101055.97;5000557;28;98912;-63
2023/06/21 08:05:46;;;;;;;15.35;13.75;;;;;;;30.42;52.90;101059.00;5005267;28;99342;-63
2023/06/21 08:08:15;;;;;;;16.67;12.93;;;;;;;30.85;52.18;101059.56;5007654;28;96927;-62
2023/06/21 08:10:42;;;;;;;14.70;13.10;;;;;;;30.76;52.75;101061.47;5010627;28;97011;-62
2023/06/21 08:13:08;;;;;;;14.05;11.20;;;;;;;30.63;52.46;101076.69;5010872;28;99541;-62
2023/06/21 08:15:35;;;;;;;12.73;11.43;;;;;;;30.54;52.74;101077.75;5009874;28;98948;-62
2023/06/21 08:18:01;;;;;;;12.85;11.57;;;;;;;30.48;52.73;101074.66;5006584;28;97185;-62
2023/06/21 08:20:27;;;;;;;13.98;11.38;;;;;;;30.79;52.19;101074.72;5004637;28;97427;-63
2023/06/21 08:22:55;;;;;;;13.13;11.82;;;;;;;30.94;51.44;101069.38;5004761;28;98923;-62
2023/06/21 08:25:21;;;;;;;12.68;11.38;;;;;;;30.53;52.62;101076.88;5003214;28;99185;-62
2023/06/21 08:27:48;;;;;;;12.35;11.10;;;;;;;30.51;52.07;101084.41;5003879;28;97081;-63
2023/06/21 08:30:14;;;;;;;16.05;11.88;;;;;;;31.16;50.70;101079.53;5013143;28;97068;-63
2023/06/21 08:32:41;;;;;;;13.80;12.00;;;;;;;31.32;50.73;101085.91;4998497;28;99104;-62
2023/06/21 08:35:08;;;;;;;13.60;12.15;;;;;;;31.44;50.34;101087.19;5007347;28;97473;-62
2023/06/21 08:37:34;;;;;;;12.60;11.25;;;;;;;31.15;51.00;101088.75;5001329;27;98849;-62
2023/06/21 08:40:02;;;;;;;13.75;12.32;;;;;;;31.31;51.27;101098.69;5004933;28;97229;-62
2023/06/21 08:42:29;;;;;;;15.85;11.90;;;;;;;31.28;51.01;101093.59;5005590;28;98844;-62
2023/06/21 08:44:56;;;;;;;12.70;11.23;;;;;;;31.51;51.01;101104.53;5003397;28;99787;-62
2023/06/21 08:47:23;;;;;;;13.35;10.98;;;;;;;31.42;50.50;101092.84;5001753;28;97269;-62
2023/06/21 08:49:50;;;;;;;11.60;10.32;;;;;;;31.71;49.67;101094.84;5007512;28;98734;-62
2023/06/21 08:52:20;;;;;;;12.00;10.63;;;;;;;32.10;49.12;101099.31;5004033;28;100374;-62
2023/06/21 08:54:50;;;;;;;15.98;10.30;;;;;;;32.18;48.06;101093.78;5005777;28;98998;-63
2023/06/21 08:57:22;;;;;;;11.43;9.25;;;;;;;32.12;47.60;101098.06;4994530;28;98041;-62
2023/06/21 08:59:51;;;;;;;12.55;9.80;;;;;;;32.21;47.48;101107.94;5001161;28;96895;-62
2023/06/21 09:02:28;;;;;;;10.10;9.00;;;;;;;32.23;46.72;101105.03;5007632;28;99116;-63
2023/06/21 09:04:58;;;;;;;10.38;9.32;;;;;;;31.89;47.47;101109.06;5003218;28;99071;-63
2023/06/21 09:07:25;;;;;;;9.80;8.82;;;;;;;31.25;48.47;101115.78;5005103;28;97238;-63
2023/06/21 09:09:53;;;;;;;10.52;9.10;;;;;;;31.24;49.21;101120.41;5006009;28;97786;-62
2023/06/21 09:12:21;;;;;;;11.95;8.32;;;;;;;31.27;48.94;101120.06;5004815;28;99168;-62
2023/06/21 09:14:48;;;;;;;12.73;9.25;;;;;;;31.37;48.44;101124.44;5004160;28;98816;-63
2023/06/21 09:17:15;;;;;;;9.18;8.30;;;;;;;31.66;48.55;101121.88;5003931;28;97081;-63
2023/06/21 09:19:42;;;;;;;10.13;8.15;;;;;;;31.70;48.04;101122.38;5003834;28;97514;-63
2023/06/21 09:22:09;;;;;;;14.02;9.10;;;;;;;31.62;48.65;101118.66;5004584;28;99418;-64
2023/06/21 09:24:35;;;;;;;11.65;7.72;;;;;;;31.83;47.66;101136.28;5001787;28;98799;-63
2023/06/21 09:27:01;;;;;;;9.13;8.27;;;;;;;31.60;47.63;101131.66;5002801;28;96800;-63
2023/06/21 09:29:29;;;;;;;8.52;7.75;;;;;;;31.49;48.24;101142.13;5008359;28;96797;-63
2023/06/21 09:31:57;;;;;;;9.43;7.82;;;;;;;31.63;47.63;101133.19;5005685;28;101338;-62
2023/06/21 09:34:23;;;;;;;9.73;7.85;;;;;;;31.73;47.13;101139.22;5006469;28;97561;-62
2023/06/21 09:36:50;;;;;;;9.38;7.80;;;;;;;31.76;47.23;101136.16;5005681;27;97183;-64
2023/06/21 09:39:16;;;;;;;9.27;7.70;;;;;;;31.78;47.22;101145.00;5006285;28;97903;-63
2023/06/21 09:41:43;;;;;;;8.88;8.00;;;;;;;31.75;46.92;101142.66;5007301;28;98937;-63
2023/06/21 09:44:10;;;;;;;8.23;7.32;;;;;;;32.22;46.20;101136.13;5013162;28;98931;-63
2023/06/21 09:46:40;;;;;;;8.48;7.65;;;;;;;32.60;45.07;101140.50;5009586;28;99175;-63
2023/06/21 09:49:07;;;;;;;10.32;7.57;;;;;;;32.34;45.01;101146.41;5015437;28;97266;-63
2023/06/21 09:51:34;;;;;;;8.88;6.70;;;;;;;31.80;46.43;101148.41;4999561;28;99019;-62
2023/06/21 09:54:07;;;;;;;23.17;8.93;;;;;;;31.76;47.00;101147.09;5007456;28;98888;-62
2023/06/21 09:56:34;;;;;;;9.63;8.63;;;;;;;32.15;46.54;101138.75;4999026;28;97258;-62
2023/06/21 09:59:01;;;;;;;11.57;10.43;;;;;;;31.97;46.48;101135.44;5016121;28;97031;-62
2023/06/21 10:01:38;;;;;;;8.75;7.10;;;;;;;31.92;46.07;101144.19;5007144;28;99038;-62
2023/06/21 10:04:10;;;;;;;7.97;7.18;;;;;;;31.94;45.28;101138.56;5002358;28;101640;-63
2023/06/21 10:06:37;;;;;;;8.20;7.22;;;;;;;31.72;45.87;101142.13;5005740;28;98782;-63
2023/06/21 10:09:08;;;;;;;8.20;7.50;;;;;;;31.96;45.19;101140.09;5005173;28;97420;-63
2023/06/21 10:11:35;;;;;;;9.48;7.20;;;;;;;32.09;45.32;101135.88;4998525;28;97942;-63
2023/06/21 10:14:01;;;;;;;8.30;7.43;;;;;;;32.09;45.92;101152.28;5007812;28;99010;-63
2023/06/21 10:16:28;;;;;;;8.93;7.80;;;;;;;31.82;45.28;101151.81;4999213;28;98320;-62
2023/06/21 10:18:59;;;;;;;8.32;7.38;;;;;;;32.26;44.77;101149.22;5004625;28;96815;-63
2023/06/21 10:21:28;;;;;;;7.30;6.55;;;;;;;32.53;44.03;101144.16;5006792;28;99049;-62
2023/06/21 10:23:56;;;;;;;8.70;7.30;;;;;;;32.56;44.30;101157.50;5004711;28;99080;-63
2023/06/21 10:26:25;;;;;;;8.98;6.78;;;;;;;32.19;44.78;101155.63;5007619;28;97446;-61
2023/06/21 10:28:56;;;;;;;9.27;6.95;;;;;;;32.43;43.71;101156.22;5003289;28;98964;-62
2023/06/21 10:31:26;;;;;;;8.23;7.45;;;;;;;32.58;42.94;101150.78;5008049;28;99303;-63
2023/06/21 10:33:56;;;;;;;10.30;6.55;;;;;;;32.68;42.59;101158.75;4996932;28;99002;-63
2023/06/21 10:36:26;;;;;;;8.55;6.75;;;;;;;32.66;42.97;101158.91;4995943;28;97318;-63
2023/06/21 10:39:02;;;;;;;6.45;5.93;;;;;;;32.37;43.17;101156.97;5006703;28;97836;-63
2023/06/21 10:41:29;;;;;;;7.00;6.30;;;;;;;31.97;43.92;101160.88;4994431;28;99732;-63
2023/06/21 10:43:56;;;;;;;9.07;6.93;;;;;;;32.16;43.35;101150.53;4997853;28;99216;-63
2023/06/21 10:46:23;;;;;;;7.63;6.85;;;;;;;32.14;43.34;101155.34;4999758;28;97543;-63
2023/06/21 10:48:51;;;;;;;6.88;6.25;;;;;;;32.72;42.46;101160.91;5001120;28;97000;-64
2023/06/21 10:51:20;;;;;;;8.30;6.30;;;;;;;33.23;41.03;101153.63;5009488;28;98965;-63
2023/06/21 10:53:48;;;;;;;6.82;6.15;;;;;;;33.20;40.78;101166.84;5006487;28;99017;-63
2023/06/21 10:56:16;;;;;;;7.75;5.88;;;;;;;33.16;40.68;101162.75;5014193;27;97308;-62
2023/06/21 10:58:43;;;;;;;9.93;6.10;;;;;;;33.41;39.64;101166.06;5014654;28;97228;-62
2023/06/21 11:01:10;;;;;;;6.53;5.90;;;;;;;33.21;39.85;101165.81;5007368;28;99030;-63
2023/06/21 11:03:37;;;;;;;7.95;5.63;;;;;;;33.33;39.62;101169.75;5015360;28;97717;-62
2023/06/21 11:06:23;;;;;;;7.13;5.43;;;;;;;33.20;39.48;101169.59;5007040;28;97014;-63
2023/06/21 11:08:49;;;;;;;6.20;5.60;;;;;;;33.40;39.24;101176.16;5014535;28;97074;-61
2023/06/21 11:11:28;;;;;;;6.47;4.95;;;;;;;33.32;38.83;101161.72;5007699;27;98927;-62
2023/06/21 11:13:55;;;;;;;5.90;5.30;;;;;;;33.25;39.51;101180.81;5012206;28;99083;-62